sensor_id;sensor_type;location;lat;lon;timestamp;noise_LAeq;noise_LA_min;noise_LA_max;noise_LA01;noise_LA95
72686;Laerm;61365;52.162;4.500;2023-03-20T00:01:21;46.12;36.84;58.89;;
72686;Laerm;61365;52.162;4.500;2023-03-20T00:03:50;46.84;35.55;58.25;;
72686;Laerm;61365;52.162;4.500;2023-03-20T00:06:18;47.87;35.57;58.68;;
72686;Laerm;61365;52.162;4.500;2023-03-20T00:08:46;48.10;35.40;59.40;;
72686;Laerm;61365;52.162;4.500;2023-03-20T00:11:34;47.60;35.13;58.05;;
72686;Laerm;61365;52.162;4.500;2023-03-20T00:14:04;47.94;35.47;59.55;;
72686;Laerm;61365;52.162;4.500;2023-03-20T00:16:34;47.97;35.64;58.15;;
72686;Laerm;61365;52.162;4.500;2023-03-20T00:19:01;47.82;35.63;58.36;;
72686;Laerm;61365;52.162;4.500;2023-03-20T00:21:28;47.84;35.92;57.45;;
72686;Laerm;61365;52.162;4.500;2023-03-20T00:23:55;48.02;35.89;60.28;;
72686;Laerm;61365;52.162;4.500;2023-03-20T00:26:32;46.77;35.86;58.15;;
72686;Laerm;61365;52.162;4.500;2023-03-20T00:29:00;45.96;37.00;58.43;;
72686;Laerm;61365;52.162;4.500;2023-03-20T00:31:38;45.87;37.15;58.18;;
72686;Laerm;61365;52.162;4.500;2023-03-20T00:34:10;46.06;36.74;58.21;;
72686;Laerm;61365;52.162;4.500;2023-03-20T00:36:37;46.08;36.43;59.55;;
72686;Laerm;61365;52.162;4.500;2023-03-20T00:39:03;46.05;36.61;58.09;;
72686;Laerm;61365;52.162;4.500;2023-03-20T00:41:30;45.84;36.96;57.71;;
72686;Laerm;61365;52.162;4.500;2023-03-20T00:44:00;47.61;35.26;60.61;;
72686;Laerm;61365;52.162;4.500;2023-03-20T00:46:28;47.65;34.87;58.12;;
72686;Laerm;61365;52.162;4.500;2023-03-20T00:48:56;47.66;34.55;59.35;;
72686;Laerm;61365;52.162;4.500;2023-03-20T00:51:23;47.75;35.56;58.12;;
72686;Laerm;61365;52.162;4.500;2023-03-20T00:53:49;47.57;35.46;57.87;;
72686;Laerm;61365;52.162;4.500;2023-03-20T00:56:29;46.08;36.59;58.08;;
72686;Laerm;61365;52.162;4.500;2023-03-20T00:58:56;46.09;36.85;58.52;;
72686;Laerm;61365;52.162;4.500;2023-03-20T01:01:23;46.02;36.77;58.61;;
72686;Laerm;61365;52.162;4.500;2023-03-20T01:03:49;46.14;36.98;58.79;;
72686;Laerm;61365;52.162;4.500;2023-03-20T01:06:15;46.08;36.80;58.21;;
72686;Laerm;61365;52.162;4.500;2023-03-20T01:08:43;46.04;36.59;61.43;;
72686;Laerm;61365;52.162;4.500;2023-03-20T01:11:11;46.06;36.41;58.32;;
72686;Laerm;61365;52.162;4.500;2023-03-20T01:13:39;46.05;36.16;57.69;;
72686;Laerm;61365;52.162;4.500;2023-03-20T01:16:18;46.19;36.66;59.07;;
72686;Laerm;61365;52.162;4.500;2023-03-20T01:18:44;46.12;36.61;58.35;;
72686;Laerm;61365;52.162;4.500;2023-03-20T01:21:11;46.28;35.95;57.97;;
72686;Laerm;61365;52.162;4.500;2023-03-20T01:23:37;48.00;35.99;60.21;;
72686;Laerm;61365;52.162;4.500;2023-03-20T01:26:03;47.87;35.54;58.48;;
72686;Laerm;61365;52.162;4.500;2023-03-20T01:28:30;47.88;34.58;58.42;;
72686;Laerm;61365;52.162;4.500;2023-03-20T01:30:56;48.05;35.11;58.23;;
72686;Laerm;61365;52.162;4.500;2023-03-20T01:33:23;47.94;35.71;58.57;;
72686;Laerm;61365;52.162;4.500;2023-03-20T01:35:51;47.96;35.30;58.62;;
72686;Laerm;61365;52.162;4.500;2023-03-20T01:38:22;47.82;35.76;59.01;;
72686;Laerm;61365;52.162;4.500;2023-03-20T01:41:01;47.77;35.98;58.46;;
72686;Laerm;61365;52.162;4.500;2023-03-20T01:43:28;47.91;35.39;58.32;;
72686;Laerm;61365;52.162;4.500;2023-03-20T01:46:13;47.99;35.47;58.41;;
72686;Laerm;61365;52.162;4.500;2023-03-20T01:51:22;47.87;35.19;58.93;;
72686;Laerm;61365;52.162;4.500;2023-03-20T01:53:53;47.66;35.61;58.57;;
72686;Laerm;61365;52.162;4.500;2023-03-20T01:56:19;47.81;35.20;58.08;;
72686;Laerm;61365;52.162;4.500;2023-03-20T01:58:50;47.93;35.79;57.46;;
72686;Laerm;61365;52.162;4.500;2023-03-20T02:01:20;47.80;34.91;58.14;;
72686;Laerm;61365;52.162;4.500;2023-03-20T02:03:48;48.06;35.53;58.28;;
72686;Laerm;61365;52.162;4.500;2023-03-20T02:06:15;47.76;35.77;58.30;;
72686;Laerm;61365;52.162;4.500;2023-03-20T02:08:50;46.34;37.02;59.97;;
72686;Laerm;61365;52.162;4.500;2023-03-20T02:11:18;46.24;37.28;58.98;;
72686;Laerm;61365;52.162;4.500;2023-03-20T02:13:45;46.38;36.75;58.44;;
72686;Laerm;61365;52.162;4.500;2023-03-20T02:16:13;46.18;37.62;57.45;;
72686;Laerm;61365;52.162;4.500;2023-03-20T02:18:42;46.27;36.54;59.26;;
72686;Laerm;61365;52.162;4.500;2023-03-20T02:27:23;46.10;36.63;59.56;;
72686;Laerm;61365;52.162;4.500;2023-03-20T02:30:04;46.34;37.13;58.59;;
72686;Laerm;61365;52.162;4.500;2023-03-20T02:33:00;46.20;36.65;59.23;;
72686;Laerm;61365;52.162;4.500;2023-03-20T02:35:42;46.21;36.91;58.95;;
72686;Laerm;61365;52.162;4.500;2023-03-20T02:38:41;46.38;36.59;59.78;;
72686;Laerm;61365;52.162;4.500;2023-03-20T02:44:20;46.12;36.55;58.26;;
72686;Laerm;61365;52.162;4.500;2023-03-20T02:55:09;48.24;35.96;58.71;;
72686;Laerm;61365;52.162;4.500;2023-03-20T03:00:27;48.00;35.49;57.91;;
72686;Laerm;61365;52.162;4.500;2023-03-20T03:03:15;47.72;34.82;58.24;;
72686;Laerm;61365;52.162;4.500;2023-03-20T03:06:00;46.17;36.75;58.18;;
72686;Laerm;61365;52.162;4.500;2023-03-20T03:08:34;46.30;37.02;59.36;;
72686;Laerm;61365;52.162;4.500;2023-03-20T03:11:07;46.15;37.23;58.49;;
72686;Laerm;61365;52.162;4.500;2023-03-20T03:13:37;46.26;37.15;60.24;;
72686;Laerm;61365;52.162;4.500;2023-03-20T03:16:11;46.14;37.05;58.40;;
72686;Laerm;61365;52.162;4.500;2023-03-20T03:18:40;46.17;37.10;58.27;;
72686;Laerm;61365;52.162;4.500;2023-03-20T03:21:10;46.25;36.88;57.83;;
72686;Laerm;61365;52.162;4.500;2023-03-20T03:23:44;46.20;36.71;58.21;;
72686;Laerm;61365;52.162;4.500;2023-03-20T03:26:17;46.20;36.53;59.27;;
72686;Laerm;61365;52.162;4.500;2023-03-20T03:28:50;46.84;35.40;59.73;;
72686;Laerm;61365;52.162;4.500;2023-03-20T03:31:20;47.78;35.08;59.00;;
72686;Laerm;61365;52.162;4.500;2023-03-20T03:33:49;48.23;35.90;58.10;;
72686;Laerm;61365;52.162;4.500;2023-03-20T03:41:34;48.11;36.05;59.54;;
72686;Laerm;61365;52.162;4.500;2023-03-20T03:44:12;47.92;35.30;58.17;;
72686;Laerm;61365;52.162;4.500;2023-03-20T03:46:41;48.04;35.55;59.12;;
72686;Laerm;61365;52.162;4.500;2023-03-20T03:49:15;48.01;35.53;58.29;;
72686;Laerm;61365;52.162;4.500;2023-03-20T03:51:46;48.20;35.51;59.07;;
72686;Laerm;61365;52.162;4.500;2023-03-20T03:54:21;48.01;35.27;59.06;;
72686;Laerm;61365;52.162;4.500;2023-03-20T03:56:50;47.96;35.98;58.08;;
72686;Laerm;61365;52.162;4.500;2023-03-20T03:59:44;48.01;34.99;58.47;;
72686;Laerm;61365;52.162;4.500;2023-03-20T04:02:09;47.61;34.94;58.80;;
72686;Laerm;61365;52.162;4.500;2023-03-20T04:04:38;48.11;36.14;59.31;;
72686;Laerm;61365;52.162;4.500;2023-03-20T04:07:07;48.13;35.45;58.13;;
72686;Laerm;61365;52.162;4.500;2023-03-20T04:09:33;46.69;36.04;60.12;;
72686;Laerm;61365;52.162;4.500;2023-03-20T04:11:59;46.18;36.96;57.43;;
72686;Laerm;61365;52.162;4.500;2023-03-20T04:14:25;46.17;36.54;58.47;;
72686;Laerm;61365;52.162;4.500;2023-03-20T04:16:52;46.43;36.98;58.57;;
72686;Laerm;61365;52.162;4.500;2023-03-20T04:19:18;46.21;36.28;58.86;;
72686;Laerm;61365;52.162;4.500;2023-03-20T04:21:44;46.31;36.48;58.23;;
72686;Laerm;61365;52.162;4.500;2023-03-20T04:24:10;46.25;36.62;58.19;;
72686;Laerm;61365;52.162;4.500;2023-03-20T04:26:37;46.63;36.09;58.46;;
72686;Laerm;61365;52.162;4.500;2023-03-20T04:29:04;48.13;34.88;58.65;;
72686;Laerm;61365;52.162;4.500;2023-03-20T04:31:30;48.29;36.15;59.89;;
72686;Laerm;61365;52.162;4.500;2023-03-20T04:33:57;48.00;36.14;59.88;;
72686;Laerm;61365;52.162;4.500;2023-03-20T04:36:23;48.08;36.71;59.62;;
72686;Laerm;61365;52.162;4.500;2023-03-20T04:38:49;47.92;36.31;57.96;;
72686;Laerm;61365;52.162;4.500;2023-03-20T04:41:15;47.80;35.52;58.88;;
72686;Laerm;61365;52.162;4.500;2023-03-20T04:43:41;48.08;35.58;58.39;;
72686;Laerm;61365;52.162;4.500;2023-03-20T04:46:07;47.98;35.26;58.64;;
72686;Laerm;61365;52.162;4.500;2023-03-20T04:48:33;48.18;35.73;58.57;;
72686;Laerm;61365;52.162;4.500;2023-03-20T04:51:00;47.95;35.40;57.77;;
72686;Laerm;61365;52.162;4.500;2023-03-20T04:53:26;48.05;35.82;57.99;;
72686;Laerm;61365;52.162;4.500;2023-03-20T04:55:52;48.03;35.08;59.00;;
72686;Laerm;61365;52.162;4.500;2023-03-20T04:58:18;47.85;35.87;58.42;;
72686;Laerm;61365;52.162;4.500;2023-03-20T05:00:44;48.23;35.53;58.66;;
72686;Laerm;61365;52.162;4.500;2023-03-20T05:03:10;47.98;35.73;59.38;;
72686;Laerm;61365;52.162;4.500;2023-03-20T05:05:37;48.15;36.37;59.36;;
72686;Laerm;61365;52.162;4.500;2023-03-20T05:08:04;48.12;36.52;58.16;;
72686;Laerm;61365;52.162;4.500;2023-03-20T05:10:31;47.98;35.88;58.81;;
72686;Laerm;61365;52.162;4.500;2023-03-20T05:12:57;48.02;36.13;58.61;;
72686;Laerm;61365;52.162;4.500;2023-03-20T05:15:23;47.95;35.57;58.68;;
72686;Laerm;61365;52.162;4.500;2023-03-20T05:17:49;47.91;35.40;58.13;;
72686;Laerm;61365;52.162;4.500;2023-03-20T05:20:15;47.98;35.56;58.36;;
72686;Laerm;61365;52.162;4.500;2023-03-20T05:22:41;47.93;35.49;58.63;;
72686;Laerm;61365;52.162;4.500;2023-03-20T05:25:08;47.98;34.88;59.01;;
72686;Laerm;61365;52.162;4.500;2023-03-20T05:27:34;47.77;35.09;57.63;;
72686;Laerm;61365;52.162;4.500;2023-03-20T05:30:00;48.01;35.04;59.08;;
72686;Laerm;61365;52.162;4.500;2023-03-20T05:32:26;47.98;35.68;58.43;;
72686;Laerm;61365;52.162;4.500;2023-03-20T05:34:52;48.06;35.60;59.12;;
72686;Laerm;61365;52.162;4.500;2023-03-20T05:37:18;47.58;35.48;58.81;;
72686;Laerm;61365;52.162;4.500;2023-03-20T05:39:44;46.15;36.49;58.31;;
72686;Laerm;61365;52.162;4.500;2023-03-20T05:42:11;46.29;37.70;58.59;;
72686;Laerm;61365;52.162;4.500;2023-03-20T05:44:37;46.18;36.58;58.72;;
72686;Laerm;61365;52.162;4.500;2023-03-20T05:47:03;46.27;36.39;58.46;;
72686;Laerm;61365;52.162;4.500;2023-03-20T05:49:29;46.25;37.04;59.60;;
72686;Laerm;61365;52.162;4.500;2023-03-20T05:51:55;46.25;36.98;58.26;;
72686;Laerm;61365;52.162;4.500;2023-03-20T05:54:21;46.10;36.89;58.56;;
72686;Laerm;61365;52.162;4.500;2023-03-20T05:56:47;46.13;37.04;59.30;;
72686;Laerm;61365;52.162;4.500;2023-03-20T05:59:14;46.22;36.68;59.52;;
72686;Laerm;61365;52.162;4.500;2023-03-20T06:01:40;46.20;35.89;58.64;;
72686;Laerm;61365;52.162;4.500;2023-03-20T06:04:06;46.29;36.85;58.29;;
72686;Laerm;61365;52.162;4.500;2023-03-20T06:06:33;46.30;36.73;57.68;;
72686;Laerm;61365;52.162;4.500;2023-03-20T06:09:03;46.28;36.66;57.71;;
72686;Laerm;61365;52.162;4.500;2023-03-20T06:11:29;46.12;37.24;57.44;;
72686;Laerm;61365;52.162;4.500;2023-03-20T06:13:55;46.24;36.87;58.29;;
72686;Laerm;61365;52.162;4.500;2023-03-20T06:16:23;46.19;37.20;59.55;;
72686;Laerm;61365;52.162;4.500;2023-03-20T06:18:49;46.26;36.59;58.61;;
72686;Laerm;61365;52.162;4.500;2023-03-20T06:21:15;46.24;36.88;58.32;;
72686;Laerm;61365;52.162;4.500;2023-03-20T06:23:41;46.29;37.41;58.73;;
72686;Laerm;61365;52.162;4.500;2023-03-20T06:26:08;46.41;37.24;60.08;;
72686;Laerm;61365;52.162;4.500;2023-03-20T06:28:34;46.52;35.80;59.23;;
72686;Laerm;61365;52.162;4.500;2023-03-20T06:31:00;48.09;35.48;58.44;;
72686;Laerm;61365;52.162;4.500;2023-03-20T06:33:26;47.93;35.75;59.52;;
72686;Laerm;61365;52.162;4.500;2023-03-20T06:35:52;48.12;36.09;58.56;;
72686;Laerm;61365;52.162;4.500;2023-03-20T06:38:19;48.20;35.85;58.09;;
72686;Laerm;61365;52.162;4.500;2023-03-20T06:40:45;48.06;35.91;58.51;;
72686;Laerm;61365;52.162;4.500;2023-03-20T06:43:11;47.90;35.13;58.37;;
72686;Laerm;61365;52.162;4.500;2023-03-20T06:45:38;47.94;35.61;58.55;;
72686;Laerm;61365;52.162;4.500;2023-03-20T06:48:08;48.03;35.81;58.64;;
72686;Laerm;61365;52.162;4.500;2023-03-20T06:50:36;48.16;35.51;59.07;;
72686;Laerm;61365;52.162;4.500;2023-03-20T06:53:02;47.95;36.04;58.78;;
72686;Laerm;61365;52.162;4.500;2023-03-20T06:55:28;48.24;35.76;58.17;;
72686;Laerm;61365;52.162;4.500;2023-03-20T06:57:54;47.79;34.77;59.77;;
72686;Laerm;61365;52.162;4.500;2023-03-20T07:00:21;48.02;36.22;58.80;;
72686;Laerm;61365;52.162;4.500;2023-03-20T07:02:47;47.94;35.28;58.80;;
72686;Laerm;61365;52.162;4.500;2023-03-20T07:05:14;48.13;36.41;59.28;;
72686;Laerm;61365;52.162;4.500;2023-03-20T07:07:40;48.15;35.35;58.11;;
72686;Laerm;61365;52.162;4.500;2023-03-20T07:10:07;47.94;35.57;59.14;;
72686;Laerm;61365;52.162;4.500;2023-03-20T07:12:34;47.83;35.93;58.31;;
72686;Laerm;61365;52.162;4.500;2023-03-20T07:15:00;47.94;36.04;57.93;;
72686;Laerm;61365;52.162;4.500;2023-03-20T07:17:27;47.90;35.37;58.15;;
72686;Laerm;61365;52.162;4.500;2023-03-20T07:19:53;48.06;36.38;63.43;;
72686;Laerm;61365;52.162;4.500;2023-03-20T07:22:24;47.98;35.76;58.27;;
72686;Laerm;61365;52.162;4.500;2023-03-20T07:24:51;48.00;35.61;58.31;;
72686;Laerm;61365;52.162;4.500;2023-03-20T07:27:17;47.97;35.01;58.48;;
72686;Laerm;61365;52.162;4.500;2023-03-20T07:29:44;47.10;35.58;58.02;;
72686;Laerm;61365;52.162;4.500;2023-03-20T07:32:10;46.26;36.92;61.53;;
72686;Laerm;61365;52.162;4.500;2023-03-20T07:34:36;46.17;36.83;59.91;;
72686;Laerm;61365;52.162;4.500;2023-03-20T07:37:03;46.22;36.74;61.14;;
72686;Laerm;61365;52.162;4.500;2023-03-20T07:39:29;46.35;37.60;59.15;;
72686;Laerm;61365;52.162;4.500;2023-03-20T07:41:55;46.18;37.16;57.99;;
72686;Laerm;61365;52.162;4.500;2023-03-20T07:44:21;47.17;35.85;59.62;;
72686;Laerm;61365;52.162;4.500;2023-03-20T07:46:47;47.78;34.51;57.86;;
72686;Laerm;61365;52.162;4.500;2023-03-20T07:49:15;47.75;34.89;58.07;;
72686;Laerm;61365;52.162;4.500;2023-03-20T07:51:44;47.98;36.15;59.04;;
72686;Laerm;61365;52.162;4.500;2023-03-20T07:54:11;47.63;35.27;58.71;;
72686;Laerm;61365;52.162;4.500;2023-03-20T07:56:37;46.91;36.43;58.39;;
72686;Laerm;61365;52.162;4.500;2023-03-20T07:59:03;46.01;36.84;60.19;;
72686;Laerm;61365;52.162;4.500;2023-03-20T08:01:29;46.04;35.86;58.15;;
72686;Laerm;61365;52.162;4.500;2023-03-20T08:03:55;46.10;37.03;62.77;;
72686;Laerm;61365;52.162;4.500;2023-03-20T08:06:21;46.10;36.75;59.01;;
72686;Laerm;61365;52.162;4.500;2023-03-20T08:08:47;46.18;37.13;59.55;;
72686;Laerm;61365;52.162;4.500;2023-03-20T08:11:17;46.05;36.65;57.90;;
72686;Laerm;61365;52.162;4.500;2023-03-20T08:13:45;46.04;36.07;58.19;;
72686;Laerm;61365;52.162;4.500;2023-03-20T08:16:11;46.03;37.07;57.99;;
72686;Laerm;61365;52.162;4.500;2023-03-20T08:18:38;45.98;36.67;60.16;;
72686;Laerm;61365;52.162;4.500;2023-03-20T08:21:04;45.97;36.36;58.33;;
72686;Laerm;61365;52.162;4.500;2023-03-20T08:23:30;46.01;36.31;58.00;;
72686;Laerm;61365;52.162;4.500;2023-03-20T08:25:56;46.06;36.23;58.31;;
72686;Laerm;61365;52.162;4.500;2023-03-20T08:28:23;46.16;36.44;58.60;;
72686;Laerm;61365;52.162;4.500;2023-03-20T08:30:49;46.10;36.58;59.88;;
72686;Laerm;61365;52.162;4.500;2023-03-20T08:33:16;45.88;36.19;58.45;;
72686;Laerm;61365;52.162;4.500;2023-03-20T08:35:43;46.09;36.29;58.11;;
72686;Laerm;61365;52.162;4.500;2023-03-20T08:38:12;46.12;36.61;57.79;;
72686;Laerm;61365;52.162;4.500;2023-03-20T08:40:41;46.20;36.85;58.95;;
72686;Laerm;61365;52.162;4.500;2023-03-20T08:43:08;45.92;36.08;59.41;;
72686;Laerm;61365;52.162;4.500;2023-03-20T08:45:34;46.10;36.40;59.74;;
72686;Laerm;61365;52.162;4.500;2023-03-20T08:48:00;46.75;35.63;57.76;;
72686;Laerm;61365;52.162;4.500;2023-03-20T08:50:26;48.12;35.47;58.29;;
72686;Laerm;61365;52.162;4.500;2023-03-20T08:52:52;47.68;35.89;60.61;;
72686;Laerm;61365;52.162;4.500;2023-03-20T08:55:18;46.15;36.55;58.30;;
72686;Laerm;61365;52.162;4.500;2023-03-20T08:57:45;46.13;36.72;59.75;;
72686;Laerm;61365;52.162;4.500;2023-03-20T09:00:13;46.15;36.62;57.97;;
72686;Laerm;61365;52.162;4.500;2023-03-20T09:02:41;46.03;36.81;59.32;;
72686;Laerm;61365;52.162;4.500;2023-03-20T09:05:08;45.85;36.03;57.05;;
72686;Laerm;61365;52.162;4.500;2023-03-20T09:07:35;46.05;36.59;58.49;;
72686;Laerm;61365;52.162;4.500;2023-03-20T09:10:03;46.12;36.56;59.21;;
72686;Laerm;61365;52.162;4.500;2023-03-20T09:12:29;45.98;36.60;57.73;;
72686;Laerm;61365;52.162;4.500;2023-03-20T09:14:57;45.91;36.14;59.83;;
72686;Laerm;61365;52.162;4.500;2023-03-20T09:17:24;45.97;36.88;58.04;;
72686;Laerm;61365;52.162;4.500;2023-03-20T09:19:51;46.05;35.85;60.40;;
72686;Laerm;61365;52.162;4.500;2023-03-20T09:22:17;45.83;36.47;56.87;;
72686;Laerm;61365;52.162;4.500;2023-03-20T09:24:43;45.91;36.46;58.12;;
72686;Laerm;61365;52.162;4.500;2023-03-20T09:27:10;45.95;36.42;57.98;;
72686;Laerm;61365;52.162;4.500;2023-03-20T09:29:42;45.99;36.30;59.24;;
72686;Laerm;61365;52.162;4.500;2023-03-20T09:32:13;46.10;36.32;58.74;;
72686;Laerm;61365;52.162;4.500;2023-03-20T09:34:40;46.02;36.77;58.62;;
72686;Laerm;61365;52.162;4.500;2023-03-20T09:37:06;46.03;36.29;60.02;;
72686;Laerm;61365;52.162;4.500;2023-03-20T09:39:32;45.98;36.93;57.89;;
72686;Laerm;61365;52.162;4.500;2023-03-20T09:42:16;46.09;36.12;57.86;;
72686;Laerm;61365;52.162;4.500;2023-03-20T09:45:11;46.06;36.54;58.15;;
72686;Laerm;61365;52.162;4.500;2023-03-20T09:47:53;46.14;35.77;57.65;;
72686;Laerm;61365;52.162;4.500;2023-03-20T09:50:27;45.98;36.17;59.98;;
72686;Laerm;61365;52.162;4.500;2023-03-20T09:53:10;46.06;36.01;58.88;;
72686;Laerm;61365;52.162;4.500;2023-03-20T09:55:41;46.09;36.38;57.71;;
72686;Laerm;61365;52.162;4.500;2023-03-20T10:00:41;45.90;35.96;57.72;;
72686;Laerm;61365;52.162;4.500;2023-03-20T10:03:43;45.94;36.54;58.91;;
72686;Laerm;61365;52.162;4.500;2023-03-20T10:06:14;46.11;36.58;58.68;;
72686;Laerm;61365;52.162;4.500;2023-03-20T10:08:42;45.91;36.19;58.63;;
72686;Laerm;61365;52.162;4.500;2023-03-20T10:11:13;46.02;36.65;57.83;;
72686;Laerm;61365;52.162;4.500;2023-03-20T10:19:20;46.06;36.30;58.72;;
72686;Laerm;61365;52.162;4.500;2023-03-20T10:21:50;45.96;36.20;58.87;;
72686;Laerm;61365;52.162;4.500;2023-03-20T10:24:37;45.87;36.32;58.12;;
72686;Laerm;61365;52.162;4.500;2023-03-20T10:27:25;46.07;36.12;58.08;;
72686;Laerm;61365;52.162;4.500;2023-03-20T10:30:24;46.05;36.35;59.45;;
72686;Laerm;61365;52.162;4.500;2023-03-20T10:40:58;46.18;36.65;58.74;;
72686;Laerm;61365;52.162;4.500;2023-03-20T10:43:30;45.94;35.85;59.38;;
72686;Laerm;61365;52.162;4.500;2023-03-20T10:46:04;45.92;36.77;58.96;;
72686;Laerm;61365;52.162;4.500;2023-03-20T10:49:54;45.99;36.24;58.17;;
72686;Laerm;61365;52.162;4.500;2023-03-20T10:51:54;46.11;36.18;62.51;;
72686;Laerm;61365;52.162;4.500;2023-03-20T10:54:29;46.10;36.50;59.48;;
72686;Laerm;61365;52.162;4.500;2023-03-20T10:57:02;46.15;36.36;58.06;;
72686;Laerm;61365;52.162;4.500;2023-03-20T10:59:43;46.07;36.66;58.04;;
72686;Laerm;61365;52.162;4.500;2023-03-20T11:02:15;46.08;36.43;58.03;;
72686;Laerm;61365;52.162;4.500;2023-03-20T11:04:42;45.98;36.01;58.70;;
72686;Laerm;61365;52.162;4.500;2023-03-20T11:09:40;45.95;35.70;58.20;;
72686;Laerm;61365;52.162;4.500;2023-03-20T11:12:15;45.92;35.77;57.99;;
72686;Laerm;61365;52.162;4.500;2023-03-20T11:14:45;45.84;36.40;58.19;;
72686;Laerm;61365;52.162;4.500;2023-03-20T11:17:11;46.02;36.20;59.04;;
72686;Laerm;61365;52.162;4.500;2023-03-20T11:19:40;45.94;35.91;58.47;;
72686;Laerm;61365;52.162;4.500;2023-03-20T11:22:23;45.92;36.43;58.49;;
72686;Laerm;61365;52.162;4.500;2023-03-20T11:24:53;46.81;35.57;57.62;;
72686;Laerm;61365;52.162;4.500;2023-03-20T11:27:25;48.06;35.07;58.66;;
72686;Laerm;61365;52.162;4.500;2023-03-20T11:29:54;48.21;34.90;58.93;;
72686;Laerm;61365;52.162;4.500;2023-03-20T11:32:29;48.02;34.53;58.73;;
72686;Laerm;61365;52.162;4.500;2023-03-20T11:34:56;47.88;34.28;58.95;;
72686;Laerm;61365;52.162;4.500;2023-03-20T11:37:34;48.17;34.21;58.92;;
72686;Laerm;61365;52.162;4.500;2023-03-20T11:40:22;48.17;35.26;57.68;;
72686;Laerm;61365;52.162;4.500;2023-03-20T11:45:53;47.96;34.72;58.08;;
72686;Laerm;61365;52.162;4.500;2023-03-20T11:48:35;47.73;34.88;58.50;;
72686;Laerm;61365;52.162;4.500;2023-03-20T11:51:18;48.10;34.81;58.05;;
72686;Laerm;61365;52.162;4.500;2023-03-20T11:56:21;45.97;36.35;58.95;;
72686;Laerm;61365;52.162;4.500;2023-03-20T12:01:42;47.08;35.59;57.75;;
72686;Laerm;61365;52.162;4.500;2023-03-20T12:04:15;48.07;34.81;59.35;;
72686;Laerm;61365;52.162;4.500;2023-03-20T12:15:24;48.10;34.41;58.14;;
72686;Laerm;61365;52.162;4.500;2023-03-20T12:18:04;47.90;34.59;59.14;;
72686;Laerm;61365;52.162;4.500;2023-03-20T12:31:19;46.27;36.00;57.64;;
72686;Laerm;61365;52.162;4.500;2023-03-20T12:33:53;46.44;35.82;61.15;;
72686;Laerm;61365;52.162;4.500;2023-03-20T12:36:31;46.25;35.81;58.81;;
72686;Laerm;61365;52.162;4.500;2023-03-20T12:39:00;45.95;35.45;57.66;;
72686;Laerm;61365;52.162;4.500;2023-03-20T12:47:56;45.98;35.98;57.52;;
72686;Laerm;61365;52.162;4.500;2023-03-20T12:51:07;46.00;35.88;57.89;;
72686;Laerm;61365;52.162;4.500;2023-03-20T12:53:58;45.98;35.88;58.94;;
72686;Laerm;61365;52.162;4.500;2023-03-20T13:07:23;45.77;35.36;56.89;;
72686;Laerm;61365;52.162;4.500;2023-03-20T13:10:09;45.81;35.81;58.59;;
72686;Laerm;61365;52.162;4.500;2023-03-20T13:21:32;47.18;34.37;59.88;;
72686;Laerm;61365;52.162;4.500;2023-03-20T13:29:41;46.56;35.43;59.76;;
72686;Laerm;61365;52.162;4.500;2023-03-20T13:32:37;48.15;34.81;60.98;;
72686;Laerm;61365;52.162;4.500;2023-03-20T13:37:54;45.88;35.90;59.19;;
72686;Laerm;61365;52.162;4.500;2023-03-20T13:40:32;45.73;35.69;58.34;;
72686;Laerm;61365;52.162;4.500;2023-03-20T13:43:30;45.85;36.25;58.12;;
72686;Laerm;61365;52.162;4.500;2023-03-20T13:46:03;45.72;35.96;58.18;;
72686;Laerm;61365;52.162;4.500;2023-03-20T13:48:38;46.93;35.30;58.74;;
72686;Laerm;61365;52.162;4.500;2023-03-20T13:51:46;47.27;34.11;58.00;;
72686;Laerm;61365;52.162;4.500;2023-03-20T14:05:35;45.78;35.80;57.98;;
72686;Laerm;61365;52.162;4.500;2023-03-20T14:13:44;45.80;35.25;59.85;;
72686;Laerm;61365;52.162;4.500;2023-03-20T14:16:14;45.72;35.62;60.38;;
72686;Laerm;61365;52.162;4.500;2023-03-20T14:18:43;45.76;35.68;58.14;;
72686;Laerm;61365;52.162;4.500;2023-03-20T14:21:12;45.75;35.73;58.22;;
72686;Laerm;61365;52.162;4.500;2023-03-20T14:23:46;45.58;35.64;56.68;;
72686;Laerm;61365;52.162;4.500;2023-03-20T14:28:51;45.74;35.75;56.44;;
72686;Laerm;61365;52.162;4.500;2023-03-20T14:31:28;45.63;36.19;58.19;;
72686;Laerm;61365;52.162;4.500;2023-03-20T14:36:59;45.64;35.94;57.06;;
72686;Laerm;61365;52.162;4.500;2023-03-20T14:42:20;45.73;35.73;57.96;;
72686;Laerm;61365;52.162;4.500;2023-03-20T14:47:50;47.86;34.48;58.38;;
72686;Laerm;61365;52.162;4.500;2023-03-20T14:50:26;47.88;34.40;58.12;;
72686;Laerm;61365;52.162;4.500;2023-03-20T14:53:25;45.87;35.23;58.06;;
72686;Laerm;61365;52.162;4.500;2023-03-20T15:01:09;45.72;35.85;57.42;;
72686;Laerm;61365;52.162;4.500;2023-03-20T15:03:40;45.72;35.59;56.18;;
72686;Laerm;61365;52.162;4.500;2023-03-20T15:06:08;45.84;35.51;58.47;;
72686;Laerm;61365;52.162;4.500;2023-03-20T15:08:44;46.19;34.46;58.77;;
72686;Laerm;61365;52.162;4.500;2023-03-20T15:11:13;45.72;35.95;58.81;;
72686;Laerm;61365;52.162;4.500;2023-03-20T15:13:40;45.71;35.88;59.56;;
72686;Laerm;61365;52.162;4.500;2023-03-20T15:16:11;45.80;36.44;57.41;;
72686;Laerm;61365;52.162;4.500;2023-03-20T15:18:43;45.77;35.95;59.49;;
72686;Laerm;61365;52.162;4.500;2023-03-20T15:21:26;45.78;35.94;57.70;;
72686;Laerm;61365;52.162;4.500;2023-03-20T15:23:56;45.65;36.30;57.59;;
72686;Laerm;61365;52.162;4.500;2023-03-20T15:26:24;45.71;36.01;57.55;;
72686;Laerm;61365;52.162;4.500;2023-03-20T15:28:58;45.74;35.93;57.26;;
72686;Laerm;61365;52.162;4.500;2023-03-20T15:31:28;45.77;36.07;58.11;;
72686;Laerm;61365;52.162;4.500;2023-03-20T15:33:56;45.68;36.06;58.38;;
72686;Laerm;61365;52.162;4.500;2023-03-20T15:36:26;45.94;33.20;69.18;;
72686;Laerm;61365;52.162;4.500;2023-03-20T15:39:40;45.75;35.92;59.86;;
72686;Laerm;61365;52.162;4.500;2023-03-20T15:42:00;45.66;36.16;57.16;;
72686;Laerm;61365;52.162;4.500;2023-03-20T15:44:37;45.66;35.92;56.35;;
72686;Laerm;61365;52.162;4.500;2023-03-20T15:49:37;45.70;35.37;57.99;;
72686;Laerm;61365;52.162;4.500;2023-03-20T15:54:44;45.76;35.81;58.01;;
72686;Laerm;61365;52.162;4.500;2023-03-20T15:57:19;45.73;36.31;57.64;;
72686;Laerm;61365;52.162;4.500;2023-03-20T15:59:46;45.78;36.16;59.33;;
72686;Laerm;61365;52.162;4.500;2023-03-20T16:02:12;45.77;35.80;59.65;;
72686;Laerm;61365;52.162;4.500;2023-03-20T16:04:47;45.72;35.70;57.90;;
72686;Laerm;61365;52.162;4.500;2023-03-20T16:07:26;45.84;35.85;58.22;;
72686;Laerm;61365;52.162;4.500;2023-03-20T16:09:53;45.78;36.04;58.42;;
72686;Laerm;61365;52.162;4.500;2023-03-20T16:12:19;45.76;35.60;57.67;;
72686;Laerm;61365;52.162;4.500;2023-03-20T16:14:47;45.72;36.54;57.59;;
72686;Laerm;61365;52.162;4.500;2023-03-20T16:17:16;45.80;35.12;59.50;;
72686;Laerm;61365;52.162;4.500;2023-03-20T16:19:43;45.81;35.76;59.08;;
72686;Laerm;61365;52.162;4.500;2023-03-20T16:24:47;45.68;36.18;58.84;;
72686;Laerm;61365;52.162;4.500;2023-03-20T16:27:21;45.94;35.62;58.81;;
72686;Laerm;61365;52.162;4.500;2023-03-20T16:29:51;45.89;36.04;58.70;;
72686;Laerm;61365;52.162;4.500;2023-03-20T16:34:53;45.83;35.74;57.04;;
72686;Laerm;61365;52.162;4.500;2023-03-20T16:37:30;45.91;35.67;59.27;;